Résultats

Course Saint Antoine 10km. Édition 2019.

10 Km
16/06/2019 à 09:00:00 - Meyreuil (13)
174 arrivant(e)s.





Place▲ Temps Dossard Nom Prenom Categ #Categ Sexe #Sexe Club Vit Moy Diplôme Partager
1 00:39:03 1061 LATRECHE FOUAD SEM 1 M 1 APC MARATHONIACK 15.36
2 00:39:50 986 MARTIN DAVID M1M 1 M 2 TEAM TRIATHL'AIX 15.06
3 00:41:02 969 HERIN HUGO SEM 2 M 3 ATHLE PROVENCE CLUBS 14.62
4 00:42:46 1083 GURDJOGLOU ARNAUD M1M 2 M 4 14.03
5 00:42:55 1006 PERRIN JEROME SEM 3 M 5 OM ATHLE 13.98
6 00:43:31 1068 DOLQUES GUILLAUME SEM 4 M 6 13.79
7 00:43:32 1067 DEPOYANT CYRIL M1M 3 M 7 COURIR A MEYREUIL 13.78
8 00:44:09 936 CONDE ERIC M1M 4 M 8 OCC CABRIES 13.59
9 00:44:13 1037 SATTA MATTEO ESM 1 M 9 13.57
10 00:44:16 932 CHAUVIN YANN SEM 5 M 10 SCO STE MARGUERITE MARSEILLE 13.55
11 00:44:45 954 GERARD THIERRY M2M 1 M 11 ROGNAC ATHLETIC CLUB 13.41
12 00:44:53 903 ARMAND PASCAL SEM 6 M 12 TRIATHL'AIX 13.37
13 00:44:54 1032 VISCA LAURENT SEM 7 M 13 CHASSEUR ALPINS 13.36
14 00:44:59 1047 LEDOUX JEAN-JACQUES M2M 2 M 14 COURIR A MEYREUIL 13.34
15 00:45:03 1043 CLAUDON JOSEPH SEM 8 M 15 13.32
16 00:45:58 928 CASTELLI LAURENT M1M 5 M 16 13.05
17 00:46:04 964 GROUSSON THIBAUT SEM 9 M 17 13.02
18 00:46:09 968 GUY SYLVAIN SEM 10 M 18 SPEEDY CLUB DE PROVENCE 13.00
19 00:46:21 1012 RICHEDA GREGORY M1M 6 M 19 BOUC BEL AIR TRIATHLON 12.94
20 00:46:46 982 LORECKI ENZO CAM 1 M 20 12.83
21 00:47:34 1033 VULLO MAXIME SEM 11 M 21 KM 42.195 MARSEILLE 12.61
22 00:47:58 947 FIANDINO ALAIN SEM 12 M 22 12.51
23 00:48:00 1070 LEPRESLE YANNICK M2M 3 M 23 12.50
24 00:48:19 1042 MASSON LAURENT M2M 4 M 24 OM ATHLE 12.42
25 00:48:27 1039 GORI CHRISTOPHE SEM 13 M 25 COURIR A MEYREUIL 12.38
26 00:48:34 1003 PASCUAL PHILIPPE M2M 5 M 26 12.35
27 00:49:16 1036 TIENNOT RENAUD M1M 7 M 27 12.18
28 00:49:17 1062 MONSTERLET MATTHIEU SEM 14 M 28 12.17
29 00:49:37 967 GUTIERREZ MICKAEL M1M 8 M 29 12.09
30 00:49:39 1082 ANTONI MAXIME JUM 1 M 30 12.08
31 00:49:54 941 DELANOUE-SOARES-DIAS TANIA SEF 1 F 1 SPEEDY CLUB DE PROVENCE 12.02
32 00:50:15 996 MOURON MICHEL M2M 6 M 31 COURIR A FUVEAU 11.94
33 00:50:21 1075 ROS LIONEL M1M 9 M 32 COURIR A MEYREUIL 11.92
34 00:52:34 944 FAFIN NICOLAS ESM 2 M 33 OM/FOULEES MARSEILLE-AUBAGNE 11.41
35 00:52:41 908 BENCHENNI AHMED M1M 10 M 34 USTM JOGGING RTM 11.39
36 00:52:46 930 CAVAGNA DANIEL SEM 15 M 35 CLES GARDANNE 11.37
37 00:52:52 971 HUYGHE LAETITIA M1F 1 F 2 LA FOULEE DE GREASQUE 11.35
38 00:53:08 997 MULDERMANS FRANCK M1M 11 M 36 11.29
39 00:53:35 984 LUSINCHI ANTOINE M1M 12 M 37 11.20
40 00:53:40 988 MASSARO PATRICIA SEF 2 F 3 LA FOULEE OLLIOULAISE CAP GARONNE 11.18
41 00:53:45 1077 FIORI PHILIPPE SEM 16 M 38 11.16
42 00:53:52 934 CHUGA-ABELI JEAN-LOUIS SEM 17 M 39 11.14
43 00:53:58 907 BECCARIA JEAN-LUC M2M 7 M 40 11.12
44 00:54:05 911 BEUN PIERRE-THOMAS M1M 13 M 41 11.09
45 00:54:12 990 MESSAOUDI FARID M2M 8 M 42 ACP 11.07
46 00:54:13 1058 MARTINEZ THIERRY M2M 9 M 43 COURIR A MEYREUIL 11.07
47 00:54:14 978 LEPRESLE MAXENCE CAM 2 M 44 GUERIDUNCANCER 11.06
48 00:54:19 924 BURDIN EMMANUEL M1M 14 M 45 OLYMPIQUE CABRIES CALAS 11.05
49 00:54:22 1044 HIDALGO ALEXANDRE SEM 18 M 46 11.04
50 00:54:46 1081 GIMENEZ DANIEL M3M 1 M 47 10.96
51 00:54:56 935 COMORASSAMY ALEXANDRE SEM 19 M 48 10.92
52 00:55:01 1057 MAITREPIERRE JEROME M2M 10 M 49 MASSILIA MARATHON 10.91
53 00:55:02 1013 ROSSI FREDERIC SEM 20 M 50 COURIR A VELAUX 10.90
54 00:55:12 912 BOISSONT SOPHIE M1F 2 F 4 SPEEDY CLUB DE PROVENCE 10.87
55 00:55:33 977 LEFEBVRE FRANCOISE M3F 1 F 5 LFA TRETS 10.80
56 00:55:42 1064 BOULANGER NICOLAS M2M 11 M 51 10.77
57 00:55:51 1034 YACHOU KARIM M1M 15 M 52 10.74
58 00:56:02 1059 DUFAU GUILLAUME M1M 16 M 53 COURIR A MEYREUIL 10.71
59 00:56:24 1017 SALINERO STEPHANE M1M 17 M 54 10.64
60 00:56:36 1060 PIAN FABRICE SEM 21 M 55 10.60
61 00:56:41 1002 PAILHES ERIC M2M 12 M 56 10.59
62 00:56:47 931 CHANCEL FRANCOIS M2M 13 M 57 10.57
63 00:57:19 1076 DUFOUR JEROME M1M 18 M 58 10.47
64 00:57:21 974 KOPF ALAIN M3M 2 M 59 BBA 10.46
65 00:57:38 1016 SALE JOSEPH M3M 3 M 60 NEANT 10.41
66 00:57:44 980 LILLAZ FABIENNE M1F 3 F 6 CE STMICROELECTRONICS 10.39
67 00:57:51 975 LABREUIL DIDIER SEM 22 M 61 10.37
68 00:57:55 992 MOLINA JULIEN M1M 19 M 62 10.36
69 00:57:56 1027 TONNAIRE HELENE M2F 1 F 7 USAM TOULON 10.36
70 00:58:14 1054 CALVACHE CHRISTOPHE M1M 20 M 63 10.30
71 00:58:17 1079 MARTINEZ GREGORY SEM 23 M 64 10.29
72 00:58:21 1000 O'HARA-LAFONTAN JUSTINE M2F 2 F 8 CABBA 10.28
73 00:58:33 1051 IACOPONI PROSPER M3M 4 M 65 10.25
74 00:59:08 905 AUBERT EMELINE M1F 4 F 9 CABBA 10.15
75 00:59:08 1080 CHABROL OLIVIER M1M 21 M 66 VITROLLES SPORT NATATION 10.15
76 00:59:14 919 BOYER BEATRICE M3F 2 F 10 COURIR A BOUC BEL AIR 10.13
77 00:59:27 920 BOYER-VICARIO CELINE M2F 3 F 11 CSPCG 13 10.09
78 00:59:29 963 GOUVERNAIRE YSEULT M1F 5 F 12 SPEEDY CLUB DE PROVENCE 10.09
79 00:59:50 949 FORNELLA CAROLE M1F 6 F 13 LES FOULEES ROCASSIERES 10.03
80 00:59:59 994 MONSACRE STEPHANIE M1F 7 F 14 OLYMPIQUE CABRIES CALAS 10.00
81 01:00:20 1004 PAULAY GILBERT M4M 1 M 67 9.94
82 01:00:25 957 GODINEZ AMELIE SEF 3 F 15 9.93
83 01:00:33 950 FORNELLA LAURENT M1M 22 M 68 LES FOULEES ROCASSIERES 9.91
84 01:00:46 961 GONZALES MURIEL M2F 4 F 16 CE STMICROELECTRONICS 9.87
85 01:01:00 1038 BILLON ALICE M1F 8 F 17 9.84
86 01:01:09 901 AHMIM ALI M1M 23 M 69 COURIR A FUVEAU 9.81
87 01:01:15 987 MASSACRIER ALAIN M3M 5 M 70 KM 42.195 MARSEILLE 9.80
88 01:01:26 1050 PRINGER JULIEN SEM 24 M 71 9.77
89 01:01:39 1045 BENSOT ALI M3M 6 M 72 COURIR A MEYREUIL 9.73
90 01:01:43 1015 S MERAD M1F 9 F 18 9.72
91 01:01:48 916 BOURDON BRIGITTE M2F 5 F 19 9.71
92 01:01:51 1025 TEYSSIER TONY SEM 25 M 73 GUERIDUNCANCER 9.70
93 01:01:51 1040 SCHNEIDER ERIC M1M 24 M 74 GUERI D'UN CANCER 9.70
94 01:01:52 979 LEPRESLE SANDRINE M2F 6 F 20 GUERIDUNCANCER 9.70
95 01:01:55 960 GONCALVES SYLVIE SEF 4 F 21 CABBA 9.69
96 01:01:59 972 IBRE CHRISTIAN M3M 7 M 75 CE STMICROELECTRONICS 9.68
97 01:02:15 1056 PEREZ PHILIPPE M2M 14 M 76 9.64
98 01:02:39 913 BONNETY LAURENT M1M 25 M 77 9.58
99 01:03:37 910 BERNARD JEAN-PIERRE M4M 2 M 78 9.43
100 01:04:17 952 GARCIA PIERRE M1M 26 M 79 COURIR DANS MEYREUIL 9.33